Time;durP1;ratioP1;P1;durP2;ratioP2;P2;SDS_P1;SDS_P2;PMS_P1;PMS_P2;Temp;Humidity;BMP_temperature;BMP_pressure;BME280_temperature;BME280_humidity;BME280_pressure;Samples;Min_cycle;Max_cycle;Signal;HPM_P1;HPM_P2
2022/01/02 00:00:15;;;;;;;1.08;0.47;;;21.30;52.80;;;;;;4998647;28;20049;-87
2022/01/02 00:02:41;;;;;;;1.13;0.43;;;21.30;52.90;;;;;;5012773;28;20084;-87
2022/01/02 00:05:11;;;;;;;1.58;0.70;;;21.30;52.80;;;;;;5013125;28;20041;-87
2022/01/02 00:07:42;;;;;;;2.13;0.50;;;21.30;52.80;;;;;;5012138;28;20045;-87
2022/01/02 00:10:08;;;;;;;2.03;0.55;;;21.30;52.90;;;;;;5012540;28;20100;-86
2022/01/02 00:12:34;;;;;;;1.10;0.50;;;21.30;52.90;;;;;;4996236;28;20061;-86
2022/01/02 00:15:06;;;;;;;1.10;0.50;;;21.30;52.90;;;;;;5012102;28;20132;-86
2022/01/02 00:17:31;;;;;;;1.23;0.50;;;21.30;52.90;;;;;;5012778;28;20049;-86
2022/01/02 00:19:58;;;;;;;1.60;0.60;;;21.20;52.90;;;;;;5012647;28;20691;-87
2022/01/02 00:22:30;;;;;;;1.88;0.50;;;21.20;52.90;;;;;;4995640;28;20058;-87
2022/01/02 00:24:56;;;;;;;;;;;21.20;52.90;;;;;;4999260;28;20052;-86
2022/01/02 00:27:21;;;;;;;0.93;0.50;;;21.20;53.00;;;;;;4992749;28;20778;-87
2022/01/02 00:29:47;;;;;;;1.63;0.50;;;21.20;52.90;;;;;;4960056;28;20054;-87
2022/01/02 00:32:13;;;;;;;1.42;0.50;;;21.20;52.90;;;;;;4960548;28;20054;-87
2022/01/02 00:34:39;;;;;;;1.23;0.50;;;21.20;53.00;;;;;;4992578;28;20417;-86
2022/01/02 00:37:05;;;;;;;1.80;0.50;;;21.10;52.90;;;;;;4975798;28;20088;-87
2022/01/02 00:39:31;;;;;;;1.25;0.60;;;21.20;53.00;;;;;;4992396;28;20078;-86
2022/01/02 00:42:04;;;;;;;2.58;0.60;;;21.10;53.00;;;;;;4991959;28;20109;-87
2022/01/02 00:44:52;;;;;;;0.77;0.47;;;21.10;52.90;;;;;;4576835;28;10009100;-87
2022/01/02 00:47:35;;;;;;;1.17;0.50;;;21.10;52.90;;;;;;5017517;28;20084;-86
2022/01/02 00:50:07;;;;;;;1.50;0.50;;;21.10;52.90;;;;;;5028000;28;20049;-88
2022/01/02 00:52:37;;;;;;;0.95;0.45;;;21.10;53.00;;;;;;5028439;28;20068;-87
2022/01/02 00:55:08;;;;;;;1.33;0.52;;;21.10;53.00;;;;;;5028541;28;20083;-88
2022/01/02 00:57:36;;;;;;;1.17;0.47;;;21.10;53.00;;;;;;5028010;28;20055;-88
2022/01/02 01:00:14;;;;;;;1.33;0.50;;;21.10;53.00;;;;;;5028174;28;20091;-88
2022/01/02 01:02:45;;;;;;;0.88;0.40;;;21.10;53.00;;;;;;5028149;28;20041;-87
2022/01/02 01:05:10;;;;;;;2.07;0.67;;;21.10;53.00;;;;;;5011935;28;20504;-87
2022/01/02 01:07:36;;;;;;;1.23;0.50;;;21.00;53.00;;;;;;5011565;28;20179;-88
2022/01/02 01:10:03;;;;;;;1.58;0.40;;;21.00;53.00;;;;;;5027433;28;20046;-87
2022/01/02 01:12:29;;;;;;;0.90;0.50;;;21.00;53.00;;;;;;5011918;28;20080;-88
2022/01/02 01:14:54;;;;;;;1.02;0.50;;;21.00;53.00;;;;;;5028553;28;20596;-87
2022/01/02 01:17:20;;;;;;;1.52;0.57;;;21.40;53.20;;;;;;5011188;28;20540;-88
2022/01/02 01:19:46;;;;;;;2.25;0.60;;;21.00;53.00;;;;;;5011577;28;20524;-87
2022/01/02 01:22:11;;;;;;;2.15;0.60;;;21.00;53.10;;;;;;5028192;28;20033;-87
2022/01/02 01:24:37;;;;;;;1.42;0.50;;;21.00;53.10;;;;;;5030451;28;20516;-87
2022/01/02 01:27:04;;;;;;;1.17;0.40;;;20.90;53.00;;;;;;4682585;28;10001080;-88
2022/01/02 01:29:34;;;;;;;1.55;0.52;;;21.00;53.10;;;;;;5031697;28;20080;-89
2022/01/02 01:32:03;;;;;;;1.63;0.60;;;21.00;53.10;;;;;;5031035;28;20452;-86
2022/01/02 01:34:29;;;;;;;1.17;0.60;;;21.00;53.10;;;;;;5031049;28;20053;-87
2022/01/02 01:36:55;;;;;;;1.38;0.50;;;20.90;53.00;;;;;;5031326;28;20388;-87
2022/01/02 01:39:20;;;;;;;0.93;0.40;;;20.90;53.10;;;;;;5030134;28;20065;-85
2022/01/02 01:41:46;;;;;;;1.40;0.70;;;20.90;53.10;;;;;;5031095;28;20175;-86
2022/01/02 01:46:38;;;;;;;1.77;0.57;;;20.90;53.10;;;;;;5030372;28;20041;-86
2022/01/02 01:49:20;;;;;;;1.30;0.63;;;20.90;53.10;;;;;;5031020;28;20048;-86
2022/01/02 01:52:01;;;;;;;;;;;20.90;53.10;;;;;;817506;28;10002702;-86
2022/01/02 01:54:26;;;;;;;1.38;0.60;;;20.90;53.10;;;;;;5010588;28;20123;-86
2022/01/02 01:56:52;;;;;;;2.80;0.75;;;20.90;53.10;;;;;;5011501;28;20049;-86
2022/01/02 01:59:21;;;;;;;1.05;0.50;;;20.80;53.10;;;;;;4955105;28;20050;-86
2022/01/02 02:01:47;;;;;;;1.70;0.60;;;20.80;53.10;;;;;;5008216;28;20136;-87
2022/01/02 02:04:12;;;;;;;1.83;0.80;;;20.80;53.10;;;;;;5028005;28;20081;-87
2022/01/02 02:06:38;;;;;;;0.90;0.40;;;20.80;53.10;;;;;;5010553;28;20092;-86
2022/01/02 02:09:04;;;;;;;1.33;0.60;;;20.80;53.10;;;;;;5027672;28;20542;-87
2022/01/02 02:11:30;;;;;;;1.73;0.60;;;20.80;53.10;;;;;;5029139;28;20050;-86
2022/01/02 02:13:55;;;;;;;1.38;0.50;;;20.80;53.10;;;;;;5029509;28;20378;-87
2022/01/02 02:16:22;;;;;;;1.83;0.80;;;20.80;53.20;;;;;;5031440;28;20065;-86
2022/01/02 02:18:47;;;;;;;2.47;0.50;;;20.80;53.20;;;;;;5051123;28;20064;-86
2022/01/02 02:21:13;;;;;;;2.05;0.70;;;20.80;53.20;;;;;;5050478;28;20041;-87
2022/01/02 02:23:38;;;;;;;1.52;0.50;;;22.30;54.00;;;;;;5048525;28;20461;-87
2022/01/02 02:26:04;;;;;;;2.00;0.52;;;20.80;53.20;;;;;;5054351;28;20048;-87
2022/01/02 02:28:29;;;;;;;1.02;0.43;;;20.70;53.20;;;;;;5053905;28;20052;-87
2022/01/02 02:30:55;;;;;;;1.30;0.60;;;20.80;53.20;;;;;;5054255;28;20103;-87
2022/01/02 02:33:20;;;;;;;0.93;0.50;;;20.70;53.10;;;;;;5072271;28;20048;-87
2022/01/02 02:35:47;;;;;;;2.17;0.50;;;20.70;53.20;;;;;;5053839;28;20044;-87
2022/01/02 02:38:14;;;;;;;1.00;0.57;;;20.70;53.20;;;;;;5054160;28;20173;-87
2022/01/02 02:40:40;;;;;;;1.33;0.50;;;20.70;53.20;;;;;;5040341;28;20127;-87
2022/01/02 02:43:19;;;;;;;1.65;0.60;;;20.70;53.20;;;;;;5033435;28;20132;-87
2022/01/02 02:51:26;;;;;;;1.20;0.52;;;20.70;53.20;;;;;;5034024;28;20049;-87
2022/01/02 02:53:52;;;;;;;1.38;0.57;;;20.70;53.20;;;;;;5034221;28;20056;-88
2022/01/02 02:56:23;;;;;;;0.82;0.40;;;20.70;53.20;;;;;;5033371;28;20424;-87
2022/01/02 02:58:50;;;;;;;1.05;0.50;;;20.70;53.20;;;;;;5033881;28;20460;-87
2022/01/02 03:01:20;;;;;;;2.85;0.70;;;20.70;53.20;;;;;;5034063;28;20052;-87
2022/01/02 03:03:45;;;;;;;1.13;0.50;;;20.60;53.20;;;;;;5033054;28;20053;-87
2022/01/02 03:06:12;;;;;;;1.27;0.60;;;20.60;53.20;;;;;;5033770;28;20040;-87
2022/01/02 03:08:37;;;;;;;1.42;0.52;;;22.30;54.10;;;;;;5032648;28;20568;-88
2022/01/02 03:11:03;;;;;;;2.25;0.60;;;20.60;53.20;;;;;;5043616;28;20190;-87
2022/01/02 03:13:29;;;;;;;1.73;0.70;;;20.60;53.20;;;;;;5052000;28;20388;-87
2022/01/02 03:15:55;;;;;;;1.00;0.60;;;22.10;54.00;;;;;;5039887;28;20044;-86
2022/01/02 03:18:20;;;;;;;1.55;0.50;;;20.60;53.20;;;;;;5052778;28;20458;-86
2022/01/02 03:20:46;;;;;;;1.48;0.60;;;20.50;53.20;;;;;;5053673;28;20057;-87
2022/01/02 03:23:11;;;;;;;1.10;0.65;;;20.60;53.30;;;;;;5053311;28;20061;-87
2022/01/02 03:25:37;;;;;;;2.20;0.60;;;20.60;54.00;;;;;;5052357;28;20056;-87
2022/01/02 03:28:02;;;;;;;1.35;0.60;;;20.60;53.30;;;;;;5053502;28;20044;-87
2022/01/02 03:30:28;;;;;;;1.05;0.50;;;20.60;53.30;;;;;;5053272;28;20143;-87
2022/01/02 03:32:53;;;;;;;0.63;0.40;;;20.60;53.30;;;;;;5052412;28;20417;-87
2022/01/02 03:35:19;;;;;;;1.13;0.50;;;20.60;53.30;;;;;;5053236;28;20051;-87
2022/01/02 03:37:44;;;;;;;1.50;0.80;;;20.50;53.30;;;;;;5052454;28;20052;-90
2022/01/02 03:40:10;;;;;;;1.30;0.50;;;20.50;53.70;;;;;;5052978;28;20052;-87
2022/01/02 03:42:36;;;;;;;1.55;0.60;;;20.50;53.30;;;;;;5053253;28;20361;-87
2022/01/02 03:45:02;;;;;;;0.90;0.43;;;20.60;53.40;;;;;;5052426;28;20054;-87
2022/01/02 03:47:28;;;;;;;1.60;0.60;;;20.60;53.40;;;;;;5070927;28;20484;-87
2022/01/02 03:49:53;;;;;;;1.10;0.60;;;20.50;53.30;;;;;;5071337;28;20086;-87
2022/01/02 03:52:19;;;;;;;1.15;0.50;;;21.50;53.80;;;;;;5052234;28;20595;-87
2022/01/02 03:54:44;;;;;;;1.85;0.50;;;20.60;53.40;;;;;;5053139;28;20051;-87
2022/01/02 03:57:10;;;;;;;1.20;0.50;;;20.50;53.30;;;;;;5053027;28;20052;-87
2022/01/02 03:59:35;;;;;;;1.92;0.60;;;20.60;53.40;;;;;;5051859;28;20447;-87
2022/01/02 04:02:01;;;;;;;1.17;0.60;;;20.50;53.30;;;;;;5052630;28;20068;-87
2022/01/02 04:04:28;;;;;;;1.02;0.50;;;20.50;53.40;;;;;;5052511;28;20140;-87
2022/01/02 04:06:54;;;;;;;0.90;0.50;;;20.50;53.40;;;;;;5069851;28;20485;-88
2022/01/02 04:09:19;;;;;;;1.85;0.60;;;20.50;53.40;;;;;;5068118;28;20145;-87
2022/01/02 04:11:45;;;;;;;2.13;0.60;;;20.50;53.40;;;;;;5052198;28;20097;-87
2022/01/02 04:14:11;;;;;;;1.38;0.50;;;20.50;53.40;;;;;;5035530;28;20117;-86
2022/01/02 04:16:36;;;;;;;1.40;0.55;;;20.50;53.40;;;;;;5052344;28;20483;-87
2022/01/02 04:19:02;;;;;;;1.38;0.55;;;21.00;53.60;;;;;;5052073;28;20457;-87
2022/01/02 04:21:27;;;;;;;1.50;0.50;;;20.50;53.40;;;;;;5051888;28;20132;-87
2022/01/02 04:23:54;;;;;;;1.45;0.50;;;20.50;53.40;;;;;;5048531;28;20053;-86
2022/01/02 04:26:19;;;;;;;2.05;0.70;;;20.70;53.50;;;;;;5032275;28;20055;-86
2022/01/02 04:28:45;;;;;;;1.08;0.50;;;20.50;53.40;;;;;;5031899;28;20087;-87
2022/01/02 04:31:11;;;;;;;1.13;0.55;;;20.40;53.30;;;;;;5032302;28;20045;-87
2022/01/02 04:33:37;;;;;;;1.67;0.52;;;20.50;53.40;;;;;;5032573;28;20059;-87
2022/01/02 04:36:03;;;;;;;1.27;0.57;;;20.40;53.40;;;;;;5030858;28;20053;-86
2022/01/02 04:38:28;;;;;;;1.00;0.40;;;20.00;53.20;;;;;;5031867;28;20049;-87
2022/01/02 04:40:54;;;;;;;1.15;0.40;;;20.40;53.40;;;;;;5003052;28;20054;-87
2022/01/02 04:43:19;;;;;;;1.08;0.50;;;21.80;54.20;;;;;;4988642;28;20046;-87
2022/01/02 04:45:45;;;;;;;1.80;0.68;;;20.40;53.40;;;;;;4989383;28;20042;-87
2022/01/02 04:48:11;;;;;;;1.17;0.50;;;20.40;53.40;;;;;;4988828;28;20458;-86
2022/01/02 04:50:36;;;;;;;0.77;0.40;;;20.40;53.40;;;;;;4989140;28;20526;-86
2022/01/02 04:53:02;;;;;;;1.20;0.55;;;20.40;53.40;;;;;;4989369;28;20115;-87
2022/01/02 04:55:27;;;;;;;1.15;0.65;;;20.40;53.50;;;;;;4985380;28;20526;-86
2022/01/02 04:57:53;;;;;;;1.48;0.50;;;21.70;54.10;;;;;;4989035;28;20054;-87
2022/01/02 05:00:18;;;;;;;1.58;0.60;;;20.40;53.40;;;;;;4989184;28;20633;-87
2022/01/02 05:02:44;;;;;;;1.42;0.60;;;20.40;53.50;;;;;;4988393;28;20046;-86
2022/01/02 05:05:09;;;;;;;1.38;0.60;;;20.40;53.50;;;;;;4988725;28;20042;-86
2022/01/02 05:07:35;;;;;;;1.33;0.65;;;20.40;54.10;;;;;;4989129;28;20192;-86
2022/01/02 05:10:01;;;;;;;1.55;0.60;;;20.40;53.50;;;;;;4988238;28;20490;-86
2022/01/02 05:12:26;;;;;;;1.83;0.60;;;20.30;53.40;;;;;;4989042;28;20368;-86
2022/01/02 05:14:53;;;;;;;1.38;0.50;;;20.30;53.40;;;;;;4989043;28;20050;-87
2022/01/02 05:17:19;;;;;;;0.95;0.50;;;20.30;53.40;;;;;;4988249;28;20050;-86
2022/01/02 05:19:44;;;;;;;2.28;0.57;;;20.30;53.40;;;;;;4988790;28;20564;-86
2022/01/02 05:22:10;;;;;;;1.15;0.43;;;20.30;53.50;;;;;;4988787;28;20414;-86
2022/01/02 05:24:35;;;;;;;1.65;0.60;;;20.30;53.50;;;;;;4988047;28;20062;-86
2022/01/02 05:27:01;;;;;;;1.85;0.63;;;20.30;53.50;;;;;;4989102;28;20042;-86
2022/01/02 05:29:26;;;;;;;1.77;0.57;;;21.30;54.00;;;;;;4988584;28;20082;-86
2022/01/02 05:31:52;;;;;;;0.77;0.57;;;20.30;53.50;;;;;;4988230;28;20054;-86
2022/01/02 05:34:17;;;;;;;1.05;0.40;;;20.30;53.50;;;;;;4988622;28;20137;-87
2022/01/02 05:36:48;;;;;;;1.73;0.60;;;20.30;53.50;;;;;;4988511;28;20061;-86
2022/01/02 05:39:16;;;;;;;1.80;0.60;;;20.30;53.50;;;;;;4987906;28;20057;-86
2022/01/02 05:41:42;;;;;;;1.85;0.50;;;20.30;53.50;;;;;;4988726;28;20050;-86
2022/01/02 05:44:07;;;;;;;2.00;0.68;;;20.30;53.50;;;;;;4988806;28;20602;-86
2022/01/02 05:46:33;;;;;;;1.20;0.40;;;20.30;53.50;;;;;;4987801;28;20030;-86
2022/01/02 05:48:58;;;;;;;1.27;0.60;;;20.30;53.60;;;;;;4992415;28;20543;-88
2022/01/02 05:51:24;;;;;;;2.00;0.52;;;20.30;53.60;;;;;;4992087;28;20049;-86
2022/01/02 05:53:50;;;;;;;1.38;0.57;;;20.30;53.60;;;;;;4992982;28;20046;-86
2022/01/02 05:56:15;;;;;;;1.80;0.60;;;20.30;53.60;;;;;;4992460;28;20042;-86
2022/01/02 05:58:41;;;;;;;1.50;0.40;;;21.10;54.10;;;;;;4991532;28;20084;-87
2022/01/02 06:01:06;;;;;;;3.08;0.80;;;20.30;53.70;;;;;;4992263;28;20132;-86
2022/01/02 06:03:32;;;;;;;0.77;0.40;;;20.30;53.70;;;;;;4992225;28;20050;-86
2022/01/02 06:05:57;;;;;;;1.00;0.50;;;20.30;53.70;;;;;;4991432;28;20054;-87
2022/01/02 06:08:23;;;;;;;0.88;0.30;;;20.40;53.80;;;;;;4992113;28;20046;-87
2022/01/02 06:10:48;;;;;;;1.73;0.40;;;20.40;53.90;;;;;;4992032;28;20049;-87
2022/01/02 06:13:14;;;;;;;0.82;0.40;;;20.40;53.80;;;;;;4991515;28;20062;-87
2022/01/02 06:15:39;;;;;;;3.20;0.70;;;20.40;53.80;;;;;;4992044;28;20042;-86
2022/01/02 06:18:05;;;;;;;1.48;0.50;;;20.40;53.80;;;;;;4992278;28;20046;-86
2022/01/02 06:20:30;;;;;;;2.45;0.50;;;20.40;53.80;;;;;;4991206;28;20516;-87
2022/01/02 06:22:56;;;;;;;1.42;0.60;;;20.40;53.80;;;;;;4992086;28;20056;-87
2022/01/02 06:25:22;;;;;;;1.52;0.60;;;20.50;53.80;;;;;;4991812;28;20070;-87
2022/01/02 06:27:48;;;;;;;1.08;0.38;;;22.00;54.60;;;;;;4991232;28;20513;-87
2022/01/02 06:30:13;;;;;;;1.70;0.47;;;22.30;54.80;;;;;;4988741;28;20387;-87
2022/01/02 06:32:39;;;;;;;1.05;0.40;;;20.50;53.80;;;;;;4981812;28;20131;-88
2022/01/02 06:35:05;;;;;;;1.40;0.50;;;20.50;53.80;;;;;;4981415;28;20499;-88
2022/01/02 06:37:30;;;;;;;0.90;0.40;;;20.60;53.80;;;;;;4987749;28;20042;-87
2022/01/02 06:39:56;;;;;;;0.82;0.35;;;20.90;53.90;;;;;;4991349;28;20043;-87
2022/01/02 06:42:21;;;;;;;1.33;0.35;;;20.50;53.80;;;;;;4983518;28;20105;-87
2022/01/02 06:44:48;;;;;;;1.10;0.50;;;20.60;53.80;;;;;;4972283;28;20078;-87
2022/01/02 06:47:14;;;;;;;1.05;0.40;;;20.60;53.80;;;;;;5007557;28;20057;-87
2022/01/02 06:49:41;;;;;;;1.17;0.32;;;20.60;53.80;;;;;;5040828;28;20052;-87
2022/01/02 06:52:06;;;;;;;1.52;0.45;;;20.60;53.80;;;;;;5050881;28;20076;-87
2022/01/02 06:54:32;;;;;;;1.25;0.50;;;20.60;53.80;;;;;;5017793;28;20072;-87
2022/01/02 06:56:57;;;;;;;2.30;0.38;;;20.70;53.80;;;;;;5031571;28;20076;-87
2022/01/02 06:59:23;;;;;;;1.23;0.52;;;20.70;53.80;;;;;;5033331;28;20496;-87
2022/01/02 07:01:49;;;;;;;0.60;0.32;;;20.70;53.80;;;;;;5022469;28;20520;-87
2022/01/02 07:04:14;;;;;;;1.20;0.50;;;20.70;53.80;;;;;;5033701;28;20060;-87
2022/01/02 07:06:40;;;;;;;2.20;0.60;;;20.70;53.80;;;;;;5009716;28;20051;-87
2022/01/02 07:09:05;;;;;;;1.33;0.43;;;20.80;53.80;;;;;;5032646;28;20044;-87
2022/01/02 07:11:31;;;;;;;1.13;0.45;;;20.80;53.80;;;;;;5033477;28;20048;-88
2022/01/02 07:13:56;;;;;;;1.00;0.43;;;20.80;53.70;;;;;;5017098;28;20044;-87
2022/01/02 07:16:22;;;;;;;2.38;0.50;;;20.80;53.70;;;;;;5031253;28;20061;-87
2022/01/02 07:18:47;;;;;;;1.00;0.50;;;20.80;53.60;;;;;;5033316;28;20505;-87
2022/01/02 07:21:13;;;;;;;1.15;0.45;;;20.80;53.60;;;;;;5033466;28;20413;-87
2022/01/02 07:23:39;;;;;;;0.95;0.50;;;20.80;53.60;;;;;;5032537;28;20049;-87
2022/01/02 07:26:04;;;;;;;0.70;0.30;;;20.90;53.60;;;;;;5033299;28;20060;-87
2022/01/02 07:28:33;;;;;;;1.30;0.50;;;20.90;53.60;;;;;;5033312;28;20110;-87
2022/01/02 07:30:59;;;;;;;2.58;0.40;;;20.90;53.60;;;;;;5032793;28;20378;-87
2022/01/02 07:33:25;;;;;;;3.33;0.57;;;20.90;53.50;;;;;;5033427;28;20052;-86
2022/01/02 07:35:51;;;;;;;1.50;0.50;;;20.90;53.50;;;;;;5033522;28;20059;-84
2022/01/02 07:38:16;;;;;;;0.70;0.40;;;20.90;53.50;;;;;;5032432;28;20041;-86
2022/01/02 07:40:42;;;;;;;1.05;0.40;;;21.00;53.50;;;;;;5032909;28;20106;-87
2022/01/02 07:43:07;;;;;;;0.50;0.30;;;21.00;53.50;;;;;;5033024;28;20045;-88
2022/01/02 07:45:33;;;;;;;1.52;0.50;;;21.00;53.50;;;;;;5033145;28;20044;-88
2022/01/02 07:47:58;;;;;;;0.77;0.40;;;21.00;53.40;;;;;;5034039;28;20514;-89
2022/01/02 07:50:24;;;;;;;1.27;0.32;;;21.00;53.40;;;;;;5033261;28;20508;-89
2022/01/02 07:52:52;;;;;;;1.25;0.40;;;21.00;53.40;;;;;;5032551;28;20037;-88
2022/01/02 07:55:18;;;;;;;0.73;0.30;;;21.00;53.40;;;;;;5049082;28;20052;-84
2022/01/02 07:57:43;;;;;;;1.05;0.40;;;22.30;54.00;;;;;;5033303;28;20503;-88
2022/01/02 08:00:09;;;;;;;0.93;0.40;;;21.00;53.30;;;;;;5031962;28;20061;-88
2022/01/02 08:02:35;;;;;;;2.15;0.50;;;21.00;53.30;;;;;;5032666;28;20045;-88
2022/01/02 08:05:01;;;;;;;1.70;0.43;;;21.00;53.30;;;;;;5032370;28;20485;-88
2022/01/02 08:07:26;;;;;;;1.05;0.40;;;21.00;53.30;;;;;;5038027;28;20041;-88
2022/01/02 08:09:52;;;;;;;1.90;0.50;;;21.00;53.30;;;;;;5043840;28;20055;-88
2022/01/02 08:12:17;;;;;;;1.58;0.50;;;21.00;53.30;;;;;;5033848;28;20881;-87
2022/01/02 08:14:43;;;;;;;1.67;0.50;;;21.00;53.30;;;;;;5037242;28;20476;-88
2022/01/02 08:17:08;;;;;;;1.00;0.40;;;20.90;53.20;;;;;;5031021;28;20053;-86
2022/01/02 08:19:34;;;;;;;1.85;0.65;;;21.00;53.20;;;;;;5032268;28;20136;-88
2022/01/02 08:22:00;;;;;;;1.00;0.38;;;21.00;53.20;;;;;;5036852;28;20580;-87
2022/01/02 08:24:25;;;;;;;1.05;0.50;;;21.00;53.20;;;;;;5026908;28;20049;-88
2022/01/02 08:26:51;;;;;;;2.28;0.50;;;22.30;53.90;;;;;;5015312;28;20056;-88
2022/01/02 08:29:17;;;;;;;1.20;0.43;;;20.90;53.20;;;;;;5012533;28;20901;-88
2022/01/02 08:31:43;;;;;;;2.15;0.50;;;21.90;53.70;;;;;;5012146;28;20087;-88
2022/01/02 08:34:09;;;;;;;1.45;0.50;;;20.90;53.20;;;;;;5011538;28;20049;-88
2022/01/02 08:36:34;;;;;;;1.98;0.60;;;20.90;53.20;;;;;;5012012;28;20405;-87
2022/01/02 08:39:00;;;;;;;2.60;0.47;;;21.00;53.20;;;;;;5012193;28;20056;-88
2022/01/02 08:41:25;;;;;;;1.52;0.40;;;21.10;53.40;;;;;;5011247;28;20060;-84
2022/01/02 08:43:51;;;;;;;0.47;0.20;;;20.90;53.20;;;;;;5027650;28;20064;-88
2022/01/02 08:46:17;;;;;;;1.77;0.50;;;20.90;53.20;;;;;;5012274;28;20136;-88
2022/01/02 08:48:42;;;;;;;1.10;0.40;;;20.70;53.20;;;;;;5011389;28;20057;-87
2022/01/02 08:51:10;;;;;;;1.27;0.35;;;22.80;54.30;;;;;;5014342;28;20155;-88
2022/01/02 08:53:37;;;;;;;0.95;0.40;;;20.90;53.20;;;;;;5023797;28;20466;-87
2022/01/02 08:56:03;;;;;;;1.05;0.40;;;20.90;53.20;;;;;;5031317;28;20049;-87
2022/01/02 08:58:29;;;;;;;1.40;0.50;;;20.90;53.20;;;;;;5028435;28;20110;-86
2022/01/02 09:00:56;;;;;;;1.40;0.68;;;20.90;53.20;;;;;;5020419;28;20045;-87
2022/01/02 09:03:22;;;;;;;1.10;0.50;;;20.90;53.20;;;;;;5042016;28;20368;-87
2022/01/02 09:05:48;;;;;;;1.45;0.50;;;20.90;53.20;;;;;;5031594;28;20515;-87
2022/01/02 09:08:13;;;;;;;1.95;0.43;;;20.90;53.20;;;;;;5031120;28;20448;-87
2022/01/02 09:10:39;;;;;;;2.00;0.55;;;20.90;53.20;;;;;;5030963;28;20117;-87
2022/01/02 09:13:05;;;;;;;1.77;0.50;;;20.90;53.20;;;;;;5031260;28;20044;-87
2022/01/02 09:15:30;;;;;;;2.78;0.90;;;20.90;53.20;;;;;;5031094;28;20439;-87
2022/01/02 09:17:56;;;;;;;1.17;0.40;;;21.00;53.30;;;;;;5031290;28;20743;-87
2022/01/02 09:20:22;;;;;;;1.33;0.50;;;20.90;53.30;;;;;;5031215;28;20183;-87
2022/01/02 09:22:47;;;;;;;1.48;0.50;;;20.90;53.20;;;;;;5030355;28;20564;-87
2022/01/02 09:25:13;;;;;;;1.42;0.55;;;21.00;53.30;;;;;;5043436;28;20052;-87
2022/01/02 09:27:40;;;;;;;1.65;0.52;;;20.90;53.20;;;;;;5051370;28;20081;-87
2022/01/02 09:30:07;;;;;;;1.35;0.40;;;21.00;53.30;;;;;;5068583;28;20040;-87
2022/01/02 09:32:36;;;;;;;1.15;0.50;;;21.00;53.30;;;;;;5051328;28;20511;-88
2022/01/02 09:35:05;;;;;;;2.78;0.43;;;21.00;53.30;;;;;;5052865;28;20041;-87
2022/01/02 09:37:30;;;;;;;1.20;0.50;;;20.90;53.20;;;;;;5027921;28;20152;-87
2022/01/02 09:39:56;;;;;;;1.33;0.43;;;21.00;53.30;;;;;;5016181;28;20057;-86
2022/01/02 09:42:22;;;;;;;1.02;0.32;;;21.00;53.30;;;;;;5016091;28;20044;-87
2022/01/02 09:44:47;;;;;;;1.48;0.47;;;21.00;53.20;;;;;;5013135;28;20053;-88
2022/01/02 09:47:13;;;;;;;0.70;0.32;;;21.00;53.20;;;;;;5027939;28;20449;-87
2022/01/02 09:49:39;;;;;;;2.25;0.50;;;21.00;53.20;;;;;;4983104;28;20041;-87
2022/01/02 09:52:05;;;;;;;1.00;0.45;;;21.00;53.20;;;;;;5005372;28;20649;-87
2022/01/02 09:54:34;;;;;;;2.55;0.63;;;21.00;53.20;;;;;;4981894;28;20116;-87
2022/01/02 09:57:00;;;;;;;1.70;0.50;;;21.00;53.20;;;;;;5016022;28;20469;-87
2022/01/02 09:59:26;;;;;;;1.08;0.40;;;21.00;53.20;;;;;;5005981;28;20425;-87
2022/01/02 10:01:52;;;;;;;2.15;0.50;;;21.30;53.40;;;;;;4995272;28;20042;-88
2022/01/02 10:04:34;;;;;;;0.82;0.50;;;21.00;53.20;;;;;;4991423;28;20496;-87
2022/01/02 10:07:00;;;;;;;1.95;0.60;;;21.00;53.20;;;;;;5018017;28;20049;-87
2022/01/02 10:09:35;;;;;;;1.25;0.50;;;21.00;53.20;;;;;;5031832;28;20048;-88
2022/01/02 10:12:19;;;;;;;1.33;0.40;;;21.00;53.20;;;;;;4971938;28;20439;-86
2022/01/02 10:14:44;;;;;;;1.23;0.50;;;21.00;53.20;;;;;;4998323;28;20076;-86
2022/01/02 10:17:10;;;;;;;2.10;0.60;;;21.00;53.20;;;;;;5007665;28;20488;-86
2022/01/02 10:19:38;;;;;;;1.83;0.40;;;21.10;53.20;;;;;;5001125;28;20131;-85
2022/01/02 10:22:05;;;;;;;1.52;0.60;;;21.00;53.10;;;;;;5015504;28;20075;-85
2022/01/02 10:24:36;;;;;;;1.00;0.40;;;21.00;53.10;;;;;;5019288;28;20494;-86
2022/01/02 10:27:18;;;;;;;1.35;0.40;;;21.00;53.10;;;;;;4668730;28;10000496;-86
2022/01/02 10:29:47;;;;;;;;;;;21.00;53.10;;;;;;5011103;28;20106;-86
2022/01/02 10:32:39;;;;;;;1.38;0.40;;;21.00;53.10;;;;;;5027180;28;20497;-86
2022/01/02 10:35:18;;;;;;;0.80;0.40;;;21.10;53.20;;;;;;5014835;28;20045;-87
2022/01/02 10:37:54;;;;;;;1.95;0.50;;;21.00;53.10;;;;;;5019631;28;20045;-86
2022/01/02 10:40:31;;;;;;;0.98;0.45;;;21.00;53.10;;;;;;5035337;28;20037;-86
2022/01/02 10:42:57;;;;;;;2.00;0.50;;;21.00;53.10;;;;;;5012913;28;20077;-87
2022/01/02 10:45:43;;;;;;;1.80;0.43;;;21.10;53.10;;;;;;5033380;28;20377;-86
2022/01/02 10:48:11;;;;;;;1.60;0.50;;;21.00;53.10;;;;;;5019877;28;20148;-87
2022/01/02 10:50:37;;;;;;;0.73;0.40;;;21.00;53.10;;;;;;5034384;28;20049;-86
2022/01/02 10:53:19;;;;;;;1.08;0.47;;;21.10;53.10;;;;;;5050654;28;20063;-87
2022/01/02 10:55:45;;;;;;;0.98;0.40;;;21.00;53.10;;;;;;5049249;28;20087;-87
2022/01/02 10:58:11;;;;;;;1.88;0.50;;;21.10;53.10;;;;;;5050476;28;20077;-87
2022/01/02 11:00:37;;;;;;;1.55;0.57;;;21.10;53.20;;;;;;5033452;28;20398;-87
2022/01/02 11:03:03;;;;;;;1.50;0.50;;;21.00;53.10;;;;;;5016862;28;20110;-87
2022/01/02 11:05:29;;;;;;;2.40;0.50;;;21.10;53.10;;;;;;5000375;28;20132;-87
2022/01/02 11:07:59;;;;;;;1.88;0.50;;;21.10;53.20;;;;;;5033233;28;20160;-87
2022/01/02 11:10:25;;;;;;;1.77;0.80;;;21.10;53.10;;;;;;5038147;28;20052;-87
2022/01/02 11:12:52;;;;;;;1.65;0.60;;;21.10;53.10;;;;;;5039480;28;20045;-87
2022/01/02 11:15:19;;;;;;;1.92;0.63;;;21.10;53.10;;;;;;5032642;28;20045;-87
2022/01/02 11:17:45;;;;;;;2.05;0.60;;;21.10;53.10;;;;;;5033855;28;20055;-87
2022/01/02 11:20:12;;;;;;;2.13;0.55;;;21.10;53.10;;;;;;5033193;28;20502;-87
2022/01/02 11:22:58;;;;;;;2.08;0.60;;;21.10;53.10;;;;;;5024180;28;20143;-87
2022/01/02 11:25:51;;;;;;;1.75;0.70;;;21.10;53.10;;;;;;5033381;28;20049;-87
2022/01/02 11:28:32;;;;;;;1.23;0.45;;;21.10;53.00;;;;;;5016974;28;20056;-86
2022/01/02 11:30:58;;;;;;;2.35;0.70;;;21.10;53.00;;;;;;5016081;28;20045;-87
2022/01/02 11:33:35;;;;;;;1.85;0.60;;;21.10;53.00;;;;;;5033407;28;20044;-87
2022/01/02 11:36:30;;;;;;;0.93;0.50;;;21.10;53.00;;;;;;5049196;28;20045;-87
2022/01/02 11:39:06;;;;;;;1.38;0.50;;;21.10;53.00;;;;;;5032915;28;20056;-87
2022/01/02 11:41:47;;;;;;;1.67;0.40;;;21.10;53.00;;;;;;5049259;28;20062;-87
2022/01/02 11:44:17;;;;;;;1.27;0.50;;;21.10;53.00;;;;;;5032164;28;20561;-87
2022/01/02 11:46:56;;;;;;;1.50;0.70;;;21.10;53.00;;;;;;5040755;28;20095;-88
2022/01/02 11:49:41;;;;;;;1.15;0.50;;;21.10;52.90;;;;;;5050969;28;20503;-87
2022/01/02 11:52:26;;;;;;;1.30;0.50;;;21.10;52.90;;;;;;5008311;28;20082;-87
2022/01/02 11:54:53;;;;;;;1.25;0.50;;;21.10;52.90;;;;;;5052410;28;20056;-88
2022/01/02 11:57:27;;;;;;;1.17;0.50;;;21.10;52.90;;;;;;5051912;28;20060;-87
2022/01/02 11:59:56;;;;;;;2.63;0.55;;;20.20;52.40;;;;;;5052663;28;20061;-87
2022/01/02 12:02:21;;;;;;;1.38;0.50;;;21.10;52.90;;;;;;5052679;28;20041;-87
2022/01/02 12:04:59;;;;;;;1.00;0.50;;;21.10;52.90;;;;;;5052340;28;20055;-87
2022/01/02 12:07:50;;;;;;;2.40;0.52;;;22.10;53.50;;;;;;5052383;28;20098;-87
2022/01/02 12:10:16;;;;;;;1.52;0.60;;;21.60;53.90;;;;;;5052359;28;20044;-87
2022/01/02 12:12:59;;;;;;;3.60;0.55;;;21.60;53.20;;;;;;5051546;28;20041;-87
2022/01/02 12:15:33;;;;;;;0.80;0.40;;;21.10;52.90;;;;;;5052390;28;20052;-88
2022/01/02 12:18:07;;;;;;;2.08;0.50;;;21.00;52.90;;;;;;5052235;28;20044;-87
2022/01/02 12:21:00;;;;;;;1.70;0.50;;;21.00;52.90;;;;;;5051756;28;20051;-85
2022/01/02 12:23:34;;;;;;;2.63;0.60;;;21.40;53.10;;;;;;5052386;28;20079;-87
2022/01/02 12:26:07;;;;;;;1.55;0.50;;;21.00;52.90;;;;;;5051299;28;20080;-86
2022/01/02 12:28:43;;;;;;;1.35;0.50;;;21.00;52.90;;;;;;5023199;28;20053;-87
2022/01/02 12:31:10;;;;;;;1.30;0.50;;;21.00;52.90;;;;;;5012858;28;20513;-87
2022/01/02 12:33:36;;;;;;;1.50;0.52;;;21.00;52.90;;;;;;5011888;28;20700;-89
2022/01/02 12:36:15;;;;;;;1.13;0.60;;;21.00;52.80;;;;;;5011781;28;20152;-86
2022/01/02 12:38:49;;;;;;;1.67;0.50;;;21.00;52.90;;;;;;5010897;28;20107;-86
2022/01/02 12:41:15;;;;;;;0.77;0.40;;;21.00;52.90;;;;;;5011359;28;20448;-84
2022/01/02 12:43:56;;;;;;;1.85;0.60;;;21.00;52.90;;;;;;5012055;28;20077;-84
2022/01/02 12:46:44;;;;;;;1.98;0.52;;;21.00;52.80;;;;;;5011800;28;20572;-88
2022/01/02 12:49:14;;;;;;;1.58;0.57;;;21.00;52.90;;;;;;5011671;28;20128;-89
2022/01/02 12:51:47;;;;;;;1.40;0.60;;;21.00;53.00;;;;;;5013450;28;20059;-88
2022/01/02 12:54:17;;;;;;;2.65;0.90;;;21.00;52.90;;;;;;5010339;28;20144;-87
2022/01/02 12:56:44;;;;;;;1.73;0.60;;;21.00;52.90;;;;;;5011792;28;20057;-88
2022/01/02 12:59:30;;;;;;;1.80;0.70;;;20.90;52.90;;;;;;5011745;28;20140;-87